createdAt,value
2018-10-01T00:00:47.833Z,20.90
2018-10-01T00:03:17.081Z,19.97
2018-10-01T00:05:46.891Z,21.27
2018-10-01T00:08:16.126Z,20.50
2018-10-01T00:10:45.249Z,19.50
2018-10-01T00:13:15.868Z,20.17
2018-10-01T00:15:45.534Z,21.50
2018-10-01T00:18:14.684Z,21.67
2018-10-01T00:20:49.448Z,21.03
2018-10-01T00:23:19.700Z,21.97
2018-10-01T00:25:49.832Z,22.07
2018-10-01T00:28:19.496Z,21.67
2018-10-01T00:30:49.526Z,21.50
2018-10-01T00:33:18.722Z,23.43
2018-10-01T00:35:47.852Z,23.03
2018-10-01T00:38:17.086Z,23.53
2018-10-01T00:40:47.395Z,18.10
2018-10-01T00:43:16.557Z,13.27
2018-10-01T00:45:45.655Z,15.07
2018-10-01T00:48:14.698Z,16.30
2018-10-01T00:50:43.880Z,17.43
2018-10-01T00:53:13.059Z,19.07
2018-10-01T00:55:42.249Z,21.50
2018-10-01T00:58:11.378Z,20.87
2018-10-01T01:00:40.567Z,19.80
2018-10-01T01:03:10.311Z,24.30
2018-10-01T01:05:39.450Z,26.47
2018-10-01T01:08:09.870Z,26.40
2018-10-01T01:10:39.277Z,29.73
2018-10-01T01:13:08.577Z,28.30
2018-10-01T01:15:38.799Z,28.67
2018-10-01T01:18:08.457Z,28.33
2018-10-01T01:20:37.757Z,29.33
2018-10-01T01:23:08.350Z,28.43
2018-10-01T01:25:37.747Z,27.83
2018-10-01T01:28:07.198Z,28.90
2018-10-01T01:30:36.430Z,26.50
2018-10-01T01:33:05.653Z,29.77
2018-10-01T01:35:35.616Z,28.67
2018-10-01T01:38:04.799Z,27.13
2018-10-01T01:40:34.037Z,28.63
2018-10-01T01:43:03.261Z,27.90
2018-10-01T01:45:32.571Z,27.17
2018-10-01T01:48:01.965Z,27.13
2018-10-01T01:50:31.020Z,25.10
2018-10-01T01:53:00.173Z,24.20
2018-10-01T01:55:30.786Z,24.90
2018-10-01T01:57:59.991Z,25.37
2018-10-01T02:00:29.024Z,22.73
2018-10-01T02:02:58.321Z,24.23
2018-10-01T02:05:27.540Z,21.73
2018-10-01T02:07:57.046Z,21.87
2018-10-01T02:10:26.565Z,22.20
2018-10-01T02:12:56.461Z,22.33
2018-10-01T02:15:26.226Z,20.03
2018-10-01T02:17:55.895Z,18.90
2018-10-01T02:20:25.221Z,19.83
2018-10-01T02:22:54.267Z,21.27
2018-10-01T02:25:23.318Z,20.20
2018-10-01T02:27:52.371Z,21.77
2018-10-01T02:30:21.632Z,21.70
2018-10-01T02:32:50.832Z,22.60
2018-10-01T02:35:20.100Z,21.37
2018-10-01T02:37:49.520Z,21.40
2018-10-01T02:40:19.346Z,22.47
2018-10-01T02:42:48.525Z,22.03
2018-10-01T02:45:18.183Z,20.87
2018-10-01T02:47:48.271Z,19.67
2018-10-01T02:50:17.563Z,18.53
2018-10-01T02:52:51.899Z,18.03
2018-10-01T02:55:22.444Z,17.47
2018-10-01T02:57:51.497Z,16.27
2018-10-01T03:00:20.680Z,17.27
2018-10-01T03:02:50.479Z,16.90
2018-10-01T03:05:19.669Z,16.23
2018-10-01T03:07:48.704Z,16.17
2018-10-01T03:10:18.317Z,16.47
2018-10-01T03:12:47.512Z,16.90
2018-10-01T03:15:16.682Z,16.57
2018-10-01T03:17:45.799Z,16.47
2018-10-01T03:20:15.026Z,17.40
2018-10-01T03:22:44.126Z,16.93
2018-10-01T03:25:13.325Z,16.60
2018-10-01T03:27:42.566Z,16.33
2018-10-01T03:30:11.871Z,17.40
2018-10-01T03:32:42.773Z,17.97
2018-10-01T03:35:11.933Z,17.27
2018-10-01T03:37:41.134Z,17.13
2018-10-01T03:40:12.068Z,15.83
2018-10-01T03:42:41.298Z,15.53
2018-10-01T03:45:10.608Z,14.80
2018-10-01T03:47:40.897Z,14.47
2018-10-01T03:50:10.393Z,13.60
2018-10-01T03:52:39.510Z,11.33
2018-10-01T03:55:08.677Z,10.93
2018-10-01T03:57:37.977Z,11.67
2018-10-01T04:00:07.185Z,12.40
2018-10-01T04:02:36.410Z,12.60
2018-10-01T04:05:05.898Z,11.10
2018-10-01T04:07:35.268Z,10.60
2018-10-01T04:10:04.422Z,9.77
2018-10-01T04:12:33.576Z,8.73
2018-10-01T04:15:02.751Z,7.27
2018-10-01T04:17:32.190Z,5.80
2018-10-01T04:20:01.480Z,5.50
2018-10-01T04:22:37.993Z,6.30
2018-10-01T04:25:10.183Z,5.73
2018-10-01T04:27:40.039Z,7.53
2018-10-01T04:30:10.979Z,6.77
2018-10-01T04:32:40.044Z,7.10
2018-10-01T04:35:09.463Z,6.57
2018-10-01T04:37:38.675Z,8.13
2018-10-01T04:40:07.800Z,7.40
2018-10-01T04:42:36.955Z,8.27
2018-10-01T04:45:07.815Z,9.03
2018-10-01T04:47:36.994Z,8.23
2018-10-01T04:50:06.676Z,8.73
2018-10-01T04:52:36.537Z,9.23
2018-10-01T04:55:06.118Z,10.67
2018-10-01T04:57:35.344Z,10.07
2018-10-01T05:00:04.732Z,10.53
2018-10-01T05:02:34.315Z,10.80
2018-10-01T05:05:03.449Z,13.03
2018-10-01T05:07:32.698Z,11.70
2018-10-01T05:10:01.896Z,11.33
2018-10-01T05:12:31.622Z,11.70
2018-10-01T05:15:00.831Z,12.33
2018-10-01T05:17:30.418Z,12.60
2018-10-01T05:19:59.720Z,13.60
2018-10-01T05:22:29.435Z,14.90
2018-10-01T05:24:58.604Z,16.10
2018-10-01T05:27:27.763Z,15.97
2018-10-01T05:29:58.068Z,14.90
2018-10-01T05:32:27.819Z,16.13
2018-10-01T05:34:57.688Z,15.90
2018-10-01T05:37:27.300Z,16.77
2018-10-01T05:39:56.539Z,15.20
2018-10-01T05:42:25.670Z,15.70
2018-10-01T05:44:54.735Z,14.73
2018-10-01T05:47:24.795Z,15.03
2018-10-01T05:49:54.072Z,15.27
2018-10-01T05:52:24.052Z,14.23
2018-10-01T05:54:53.202Z,15.00
2018-10-01T05:57:22.515Z,13.47
2018-10-01T05:59:53.718Z,15.03
2018-10-01T06:02:23.013Z,13.43
2018-10-01T06:04:52.135Z,13.10
2018-10-01T06:07:22.384Z,13.60
2018-10-01T06:09:51.433Z,12.83
2018-10-01T06:12:21.224Z,13.43
2018-10-01T06:14:50.997Z,13.40
2018-10-01T06:17:20.831Z,13.37
2018-10-01T06:19:50.888Z,12.13
2018-10-01T06:22:19.972Z,10.67
2018-10-01T06:24:49.284Z,10.83
2018-10-01T06:27:18.505Z,10.10
2018-10-01T06:29:47.942Z,9.83
2018-10-01T06:32:16.999Z,8.30
2018-10-01T06:34:46.134Z,8.53
2018-10-01T06:37:15.861Z,7.23
2018-10-01T06:39:45.050Z,6.13
2018-10-01T06:42:14.410Z,6.07
2018-10-01T06:44:43.520Z,5.50
2018-10-01T06:47:13.773Z,5.80
2018-10-01T06:49:43.048Z,4.67
2018-10-01T06:52:12.264Z,4.27
2018-10-01T06:54:41.436Z,4.00
2018-10-01T06:57:11.760Z,3.90
2018-10-01T06:59:41.650Z,3.80
2018-10-01T07:02:11.921Z,3.67
2018-10-01T07:04:41.915Z,3.77
2018-10-01T07:07:11.078Z,3.63
2018-10-01T07:09:40.146Z,3.90
2018-10-01T07:12:10.598Z,3.43
2018-10-01T07:14:40.010Z,3.30
2018-10-01T07:17:11.665Z,3.03
2018-10-01T07:19:40.829Z,2.70
2018-10-01T07:22:11.184Z,2.53
2018-10-01T07:24:40.340Z,2.10
2018-10-01T07:27:11.186Z,2.13
2018-10-01T07:29:40.280Z,2.00
2018-10-01T07:32:09.349Z,1.90
2018-10-01T07:34:38.458Z,1.50
2018-10-01T07:37:09.267Z,1.60
2018-10-01T07:39:38.467Z,2.07
2018-10-01T07:42:09.452Z,1.70
2018-10-01T07:44:38.607Z,2.00
2018-10-01T07:47:07.785Z,1.97
2018-10-01T07:49:39.904Z,1.90
2018-10-01T07:52:08.977Z,2.00
2018-10-01T07:54:39.772Z,1.93
2018-10-01T07:57:09.556Z,2.40
2018-10-01T07:59:40.494Z,1.93
2018-10-01T08:02:09.699Z,2.10
2018-10-01T08:04:40.124Z,2.00
2018-10-01T08:07:09.277Z,2.57
2018-10-01T08:09:40.875Z,2.63
2018-10-01T08:12:10.173Z,3.10
2018-10-01T08:14:39.304Z,3.43
2018-10-01T08:17:09.146Z,2.17
2018-10-01T08:19:38.263Z,1.73
2018-10-01T08:22:07.458Z,2.33
2018-10-01T08:24:36.845Z,2.20
2018-10-01T08:27:05.983Z,2.60
2018-10-01T08:29:35.944Z,2.30
2018-10-01T08:32:07.645Z,2.30
2018-10-01T08:34:37.771Z,2.40
2018-10-01T08:37:07.651Z,2.50
2018-10-01T08:39:37.616Z,2.80
2018-10-01T08:42:06.983Z,2.40
2018-10-01T08:44:36.110Z,2.40
2018-10-01T08:47:06.639Z,2.00
2018-10-01T08:49:40.176Z,2.23
2018-10-01T08:52:19.758Z,2.47
2018-10-01T08:54:49.936Z,2.37
2018-10-01T08:57:20.192Z,2.30
2018-10-01T08:59:49.397Z,2.30
2018-10-01T09:02:18.548Z,2.00
2018-10-01T09:04:47.550Z,2.20
2018-10-01T09:07:17.941Z,2.07
2018-10-01T09:09:47.908Z,2.20
2018-10-01T09:12:17.090Z,2.03
2018-10-01T09:14:46.185Z,1.90
2018-10-01T09:17:16.138Z,1.90
2018-10-01T09:19:46.747Z,2.63
2018-10-01T09:22:16.624Z,2.50
2018-10-01T09:24:47.162Z,2.17
2018-10-01T09:27:17.842Z,2.77
2018-10-01T09:29:48.896Z,2.53
2018-10-01T09:32:17.971Z,2.30
2018-10-01T09:34:48.206Z,2.03
2018-10-01T09:37:18.027Z,1.97
2018-10-01T09:39:47.290Z,2.20
2018-10-01T09:42:16.653Z,1.90
2018-10-01T09:44:45.809Z,2.00
2018-10-01T09:47:16.071Z,2.10
2018-10-01T09:49:46.815Z,1.87
2018-10-01T09:52:16.182Z,1.60
2018-10-01T09:54:45.222Z,1.80
2018-10-01T09:57:15.117Z,2.00
2018-10-01T09:59:45.123Z,2.07
2018-10-01T10:02:14.333Z,1.80
2018-10-01T10:04:43.501Z,2.10
2018-10-01T10:07:12.704Z,2.60
2018-10-01T10:09:43.244Z,2.30
2018-10-01T10:12:12.523Z,2.00
2018-10-01T10:14:41.664Z,1.90
2018-10-01T10:17:10.798Z,2.13
2018-10-01T10:19:41.117Z,1.80
2018-10-01T10:22:10.388Z,1.90
2018-10-01T10:24:39.517Z,1.67
2018-10-01T10:27:10.292Z,1.60
2018-10-01T10:29:42.036Z,1.73
2018-10-01T10:32:11.895Z,1.73
2018-10-01T10:34:41.008Z,1.60
2018-10-01T10:37:10.572Z,1.93
2018-10-01T10:39:39.755Z,2.00
2018-10-01T10:42:09.167Z,1.23
2018-10-01T10:44:38.420Z,0.73
2018-10-01T10:47:07.562Z,1.10
2018-10-01T10:49:36.649Z,1.30
2018-10-01T10:52:06.030Z,1.60
2018-10-01T10:54:35.317Z,1.50
2018-10-01T10:57:04.610Z,1.40
2018-10-01T10:59:33.922Z,1.47
2018-10-01T11:02:03.028Z,1.50
2018-10-01T11:04:32.491Z,1.57
2018-10-01T11:07:01.592Z,1.50
2018-10-01T11:09:30.629Z,1.87
2018-10-01T11:11:59.786Z,2.30
2018-10-01T11:14:28.970Z,2.00
2018-10-01T11:16:58.136Z,2.00
2018-10-01T11:19:27.347Z,1.40
2018-10-01T11:21:56.811Z,1.67
2018-10-01T11:24:25.815Z,1.60
2018-10-01T11:26:55.103Z,1.80
2018-10-01T11:29:24.166Z,1.87
2018-10-01T11:31:53.679Z,1.80
2018-10-01T11:34:24.241Z,2.23
2018-10-01T11:36:53.662Z,1.90
2018-10-01T11:39:23.370Z,1.83
2018-10-01T11:41:53.281Z,2.27
2018-10-01T11:44:22.791Z,2.10
2018-10-01T11:46:51.956Z,2.17
2018-10-01T11:49:22.012Z,2.13
2018-10-01T11:51:51.130Z,2.30
2018-10-01T11:54:20.346Z,2.20
2018-10-01T11:56:49.598Z,2.30
2018-10-01T11:59:18.842Z,2.30
2018-10-01T12:01:48.732Z,2.33
2018-10-01T12:04:18.564Z,2.03
2018-10-01T12:06:47.827Z,2.70
2018-10-01T12:09:18.068Z,2.20
2018-10-01T12:11:47.246Z,2.20
2018-10-01T12:14:16.428Z,1.80
2018-10-01T12:16:45.588Z,2.23
2018-10-01T12:19:14.878Z,2.10
2018-10-01T12:21:44.199Z,1.80
2018-10-01T12:24:13.452Z,1.90
2018-10-01T12:26:42.649Z,2.10
2018-10-01T12:29:12.145Z,2.37
2018-10-01T12:31:41.320Z,2.20
2018-10-01T12:34:10.547Z,2.07
2018-10-01T12:36:40.343Z,2.27
2018-10-01T12:39:11.740Z,2.10
2018-10-01T12:41:41.945Z,2.03
2018-10-01T12:44:10.997Z,1.90
2018-10-01T12:46:40.224Z,1.90
2018-10-01T12:49:09.361Z,2.10
2018-10-01T12:51:40.053Z,2.00
2018-10-01T12:54:10.167Z,2.00
2018-10-01T12:56:39.361Z,1.90
2018-10-01T12:59:08.500Z,1.93
2018-10-01T13:01:37.543Z,1.70
2018-10-01T13:04:06.868Z,2.20
2018-10-01T13:06:37.121Z,2.40
2018-10-01T13:09:09.171Z,2.17
2018-10-01T13:11:38.353Z,2.57
2018-10-01T13:14:09.370Z,2.07
2018-10-01T13:16:40.079Z,2.20
2018-10-01T13:19:10.845Z,2.07
2018-10-01T13:21:41.234Z,1.70
2018-10-01T13:24:10.365Z,2.07
2018-10-01T13:26:39.406Z,2.20
2018-10-01T13:29:10.598Z,2.27
2018-10-01T13:31:39.650Z,2.20
2018-10-01T13:34:08.811Z,1.87
2018-10-01T13:36:38.042Z,1.67
2018-10-01T13:39:10.293Z,1.83
2018-10-01T13:41:41.279Z,2.00
2018-10-01T13:44:11.285Z,2.03
2018-10-01T13:46:40.440Z,2.10
2018-10-01T13:49:09.717Z,2.00
2018-10-01T13:51:40.258Z,2.10
2018-10-01T13:54:09.830Z,2.30
2018-10-01T13:56:39.066Z,2.10
2018-10-01T13:59:11.061Z,2.10
2018-10-01T14:01:41.096Z,1.93
2018-10-01T14:04:10.117Z,2.50
2018-10-01T14:06:40.390Z,2.20
2018-10-01T14:09:11.174Z,2.23
2018-10-01T14:11:40.821Z,2.53
2018-10-01T14:14:10.234Z,2.50
2018-10-01T14:16:39.409Z,2.40
2018-10-01T14:19:08.660Z,2.20
2018-10-01T14:21:38.832Z,2.30
2018-10-01T14:24:08.242Z,2.33
2018-10-01T14:26:37.419Z,2.03
2018-10-01T14:29:06.850Z,2.00
2018-10-01T14:31:35.986Z,2.03
2018-10-01T14:34:05.127Z,2.10
2018-10-01T14:36:34.338Z,2.30
2018-10-01T14:39:03.881Z,2.20
2018-10-01T14:41:33.019Z,2.73
2018-10-01T14:44:03.271Z,2.80
2018-10-01T14:46:34.018Z,2.70
2018-10-01T14:49:04.961Z,2.87
2018-10-01T14:51:34.120Z,2.90
2018-10-01T14:54:03.243Z,2.63
2018-10-01T14:56:33.264Z,2.47
2018-10-01T14:59:02.458Z,2.83
2018-10-01T15:01:31.729Z,2.63
2018-10-01T15:04:02.463Z,2.60
2018-10-01T15:06:31.813Z,2.40
2018-10-01T15:09:01.223Z,2.53
2018-10-01T15:11:30.570Z,2.30
2018-10-01T15:14:00.233Z,2.60
2018-10-01T15:16:29.406Z,2.23
2018-10-01T15:18:58.724Z,2.60
2018-10-01T15:21:30.304Z,2.53
2018-10-01T15:23:59.964Z,2.00
2018-10-01T15:26:28.987Z,2.33
2018-10-01T15:28:58.400Z,2.00
2018-10-01T15:31:27.957Z,2.10
2018-10-01T15:33:57.230Z,2.30
2018-10-01T15:36:26.495Z,2.17
2018-10-01T15:38:56.991Z,2.20
2018-10-01T15:41:30.386Z,2.10
2018-10-01T15:43:59.579Z,2.10
2018-10-01T15:46:30.228Z,2.30
2018-10-01T15:48:59.630Z,2.23
2018-10-01T15:51:30.277Z,1.90
2018-10-01T15:53:59.396Z,2.40
2018-10-01T15:56:29.233Z,2.03
2018-10-01T15:58:58.772Z,2.30
2018-10-01T16:01:28.451Z,2.20
2018-10-01T16:03:58.331Z,2.20
2018-10-01T16:06:27.514Z,1.90
2018-10-01T16:08:56.895Z,2.43
2018-10-01T16:11:26.069Z,2.20
2018-10-01T16:13:55.196Z,2.50
2018-10-01T16:16:24.382Z,2.10
2018-10-01T16:18:54.342Z,2.30
2018-10-01T16:21:24.495Z,2.40
2018-10-01T16:23:54.116Z,2.53
2018-10-01T16:26:23.758Z,2.80
2018-10-01T16:28:52.947Z,2.60
2018-10-01T16:31:22.124Z,2.23
2018-10-01T16:33:51.408Z,2.70
2018-10-01T16:36:20.952Z,2.40
2018-10-01T16:38:50.141Z,2.30
2018-10-01T16:41:20.550Z,3.23
2018-10-01T16:43:52.148Z,3.23
2018-10-01T16:46:21.329Z,2.80
2018-10-01T16:48:50.492Z,1.90
2018-10-01T16:51:19.750Z,2.47
2018-10-01T16:53:49.001Z,2.87
2018-10-01T16:56:18.754Z,2.33
2018-10-01T16:58:48.688Z,1.80
2018-10-01T17:01:17.909Z,2.20
2018-10-01T17:03:47.229Z,1.77
2018-10-01T17:06:16.415Z,1.60
2018-10-01T17:08:45.556Z,1.70
2018-10-01T17:11:16.113Z,1.70
2018-10-01T17:13:45.262Z,1.83
2018-10-01T17:16:15.180Z,2.10
2018-10-01T17:18:44.483Z,1.80
2018-10-01T17:21:13.708Z,2.10
2018-10-01T17:23:42.873Z,2.20
2018-10-01T17:26:12.117Z,2.10
2018-10-01T17:28:41.373Z,1.80
2018-10-01T17:31:10.584Z,1.83
2018-10-01T17:33:39.722Z,2.33
2018-10-01T17:36:09.696Z,1.60
2018-10-01T17:38:38.757Z,2.13
2018-10-01T17:41:08.861Z,2.00
2018-10-01T17:43:39.151Z,2.17
2018-10-01T17:46:08.692Z,2.57
2018-10-01T17:48:38.072Z,1.90
2018-10-01T17:51:07.506Z,2.00
2018-10-01T17:53:37.503Z,2.00
2018-10-01T17:56:07.001Z,2.00
2018-10-01T17:58:36.233Z,1.67
2018-10-01T18:01:07.233Z,1.73
2018-10-01T18:03:37.493Z,2.27
2018-10-01T18:06:07.941Z,2.57
2018-10-01T18:08:37.033Z,2.77
2018-10-01T18:11:07.585Z,2.20
2018-10-01T18:13:37.110Z,1.80
2018-10-01T18:16:06.242Z,2.27
2018-10-01T18:18:36.936Z,2.03
2018-10-01T18:21:07.218Z,1.83
2018-10-01T18:23:37.849Z,2.40
2018-10-01T18:26:07.785Z,1.93
2018-10-01T18:28:37.304Z,5.27
2018-10-01T18:31:07.261Z,2.30
2018-10-01T18:33:37.469Z,2.70
2018-10-01T18:36:07.280Z,2.50
2018-10-01T18:38:38.296Z,2.20
2018-10-01T18:41:08.693Z,1.97
2018-10-01T18:43:38.807Z,2.20
2018-10-01T18:46:08.067Z,1.80
2018-10-01T18:48:37.278Z,1.80
2018-10-01T18:51:07.026Z,2.00
2018-10-01T18:53:36.624Z,1.87
2018-10-01T18:56:07.092Z,1.87
2018-10-01T18:58:36.141Z,2.80
2018-10-01T19:01:05.414Z,2.73
2018-10-01T19:03:34.709Z,1.83
2018-10-01T19:06:03.832Z,2.40
2018-10-01T19:08:33.152Z,2.80
2018-10-01T19:11:03.653Z,2.13
2018-10-01T19:13:33.416Z,2.10
2018-10-01T19:16:02.774Z,1.87
2018-10-01T19:18:32.477Z,2.00
2018-10-01T19:21:02.943Z,1.90
2018-10-01T19:23:32.244Z,2.07
2018-10-01T19:26:03.111Z,1.80
2018-10-01T19:28:32.315Z,2.30
2018-10-01T19:31:01.440Z,2.30
2018-10-01T19:33:32.590Z,1.90
2018-10-01T19:36:01.766Z,2.10
2018-10-01T19:38:32.102Z,2.10
2018-10-01T19:41:01.954Z,2.07
2018-10-01T19:43:31.229Z,2.27
2018-10-01T19:46:01.360Z,2.07
2018-10-01T19:48:30.673Z,1.90
2018-10-01T19:51:00.019Z,2.07
2018-10-01T19:53:29.217Z,2.10
2018-10-01T19:55:58.457Z,2.10
2018-10-01T19:58:29.042Z,2.20
2018-10-01T20:00:58.168Z,2.00
2018-10-01T20:03:29.795Z,2.20
2018-10-01T20:05:59.414Z,2.20
2018-10-01T20:08:28.678Z,2.10
2018-10-01T20:10:57.916Z,2.03
2018-10-01T20:13:28.494Z,2.33
2018-10-01T20:15:58.718Z,2.93
2018-10-01T20:18:27.910Z,2.40
2018-10-01T20:20:57.428Z,2.60
2018-10-01T20:23:27.256Z,2.13
2018-10-01T20:25:56.499Z,2.70
2018-10-01T20:28:25.929Z,3.93
2018-10-01T20:30:56.069Z,3.87
2018-10-01T20:33:25.150Z,4.10
2018-10-01T20:35:54.506Z,5.80
2018-10-01T20:38:24.565Z,4.67
2018-10-01T20:40:54.353Z,2.87
2018-10-01T20:43:24.243Z,2.70
2018-10-01T20:45:54.415Z,2.47
2018-10-01T20:48:23.707Z,2.50
2018-10-01T20:50:52.739Z,2.77
2018-10-01T20:53:21.996Z,3.40
2018-10-01T20:55:51.105Z,3.23
2018-10-01T20:58:20.314Z,4.17
2018-10-01T21:00:51.459Z,3.00
2018-10-01T21:03:20.753Z,4.07
2018-10-01T21:05:49.819Z,3.67
2018-10-01T21:08:19.095Z,2.87
2018-10-01T21:10:50.962Z,3.03
2018-10-01T21:13:20.071Z,3.10
2018-10-01T21:15:49.747Z,3.10
2018-10-01T21:18:20.378Z,2.97
2018-10-01T21:20:49.633Z,3.00
2018-10-01T21:23:18.913Z,3.60
2018-10-01T21:25:48.251Z,3.47
2018-10-01T21:28:17.694Z,3.23
2018-10-01T21:30:47.658Z,3.40
2018-10-01T21:33:17.247Z,2.50
2018-10-01T21:35:46.379Z,3.43
2018-10-01T21:38:16.082Z,3.20
2018-10-01T21:40:45.215Z,3.47
2018-10-01T21:43:14.867Z,3.33
2018-10-01T21:45:44.192Z,3.20
2018-10-01T21:48:13.826Z,3.53
2018-10-01T21:50:43.729Z,3.20
2018-10-01T21:53:12.816Z,2.67
2018-10-01T21:55:41.833Z,2.90
2018-10-01T21:58:11.061Z,3.17
2018-10-01T22:00:45.528Z,3.20
2018-10-01T22:03:14.618Z,3.00
2018-10-01T22:05:43.789Z,3.37
2018-10-01T22:08:14.033Z,3.30
2018-10-01T22:10:44.708Z,3.40
2018-10-01T22:13:14.377Z,3.90
2018-10-01T22:15:47.681Z,3.80
2018-10-01T22:18:18.914Z,4.07
2018-10-01T22:20:49.111Z,3.73
2018-10-01T22:23:18.476Z,3.70
2018-10-01T22:25:47.639Z,3.40
2018-10-01T22:28:17.760Z,3.90
2018-10-01T22:30:47.798Z,4.07
2018-10-01T22:33:17.251Z,4.00
2018-10-01T22:35:47.053Z,3.73
2018-10-01T22:38:17.544Z,4.20
2018-10-01T22:40:47.326Z,3.90
2018-10-01T22:43:16.457Z,3.90
2018-10-01T22:45:45.623Z,3.80
2018-10-01T22:48:15.364Z,3.80
2018-10-01T22:50:45.114Z,3.20
2018-10-01T22:53:14.557Z,3.33
2018-10-01T22:55:44.187Z,3.33
2018-10-01T22:58:13.398Z,3.77
2018-10-01T23:00:42.526Z,3.80
2018-10-01T23:03:13.633Z,3.80
2018-10-01T23:05:43.468Z,4.70
2018-10-01T23:08:12.786Z,3.83
2018-10-01T23:10:41.874Z,3.80
2018-10-01T23:13:13.396Z,4.10
2018-10-01T23:15:43.271Z,4.10
2018-10-01T23:18:12.564Z,4.20
2018-10-01T23:20:43.113Z,4.37
2018-10-01T23:23:12.398Z,3.37
2018-10-01T23:25:41.595Z,3.50
2018-10-01T23:28:10.760Z,3.70
2018-10-01T23:30:41.525Z,3.83
2018-10-01T23:33:10.583Z,3.73
2018-10-01T23:35:39.635Z,3.17
2018-10-01T23:38:08.731Z,3.40
2018-10-01T23:40:37.994Z,3.13
2018-10-01T23:43:07.395Z,3.03
2018-10-01T23:45:37.261Z,3.13
2018-10-01T23:48:07.742Z,2.80
2018-10-01T23:50:40.481Z,3.40
2018-10-01T23:53:09.637Z,3.20
2018-10-01T23:55:39.118Z,2.97
2018-10-01T23:58:08.222Z,3.20
